Time;durP1;ratioP1;P1;durP2;ratioP2;P2;SDS_P1;SDS_P2;PMS_P1;PMS_P2;Temp;Humidity;BMP_temperature;BMP_pressure;BME280_temperature;BME280_humidity;BME280_pressure;Samples;Min_cycle;Max_cycle;Signal;HPM_P1;HPM_P2
2022/01/17 00:01:35;;;;;;;320.80;157.85;;;;;;;;;;5115933;28;20059;-64
2022/01/17 00:04:01;;;;;;;306.60;155.80;;;;;;;;;;5115925;28;20034;-66
2022/01/17 00:06:27;;;;;;;319.98;155.32;;;;;;;;;;5114930;28;20031;-64
2022/01/17 00:08:54;;;;;;;334.13;161.85;;;;;;;;;;5115840;28;20023;-64
2022/01/17 00:11:20;;;;;;;322.23;155.50;;;;;;;;;;5116036;28;20055;-64
2022/01/17 00:13:47;;;;;;;328.20;158.32;;;;;;;;;;5115669;28;20027;-65
2022/01/17 00:16:21;;;;;;;331.20;160.27;;;;;;;;;;5115657;28;20027;-65
2022/01/17 00:21:14;;;;;;;328.65;161.43;;;;;;;;;;5115533;28;20122;-66
2022/01/17 00:23:41;;;;;;;327.65;162.82;;;;;;;;;;5115763;28;20399;-65
2022/01/17 00:26:07;;;;;;;322.65;161.15;;;;;;;;;;5115445;28;20072;-64
2022/01/17 00:28:34;;;;;;;317.80;160.45;;;;;;;;;;5097054;28;20031;-64
2022/01/17 00:31:04;;;;;;;337.38;164.60;;;;;;;;;;5115146;28;20043;-65
2022/01/17 00:33:30;;;;;;;325.90;163.07;;;;;;;;;;5115343;28;20409;-64
2022/01/17 00:35:57;;;;;;;317.83;159.27;;;;;;;;;;5096484;28;20101;-65
2022/01/17 00:38:23;;;;;;;343.63;175.18;;;;;;;;;;5096955;28;20058;-64
2022/01/17 00:40:49;;;;;;;320.85;161.77;;;;;;;;;;5115138;28;20032;-67
2022/01/17 00:43:15;;;;;;;304.83;156.50;;;;;;;;;;5115408;28;20059;-65
2022/01/17 00:45:44;;;;;;;317.80;157.70;;;;;;;;;;5115119;28;20024;-63
2022/01/17 00:48:10;;;;;;;334.45;161.43;;;;;;;;;;5115052;28;20061;-67
2022/01/17 00:50:40;;;;;;;313.02;156.52;;;;;;;;;;5115051;28;20112;-67
2022/01/17 00:53:07;;;;;;;347.42;167.75;;;;;;;;;;5115270;28;20062;-66
2022/01/17 00:55:34;;;;;;;314.25;158.63;;;;;;;;;;5114898;28;20092;-67
2022/01/17 00:58:00;;;;;;;314.23;154.95;;;;;;;;;;5114830;28;20028;-67
2022/01/17 01:00:27;;;;;;;310.50;152.98;;;;;;;;;;5114804;28;20039;-67
2022/01/17 01:02:53;;;;;;;301.77;150.32;;;;;;;;;;5114430;28;20444;-65
2022/01/17 01:05:20;;;;;;;284.70;141.67;;;;;;;;;;5114391;28;20024;-66
2022/01/17 01:07:46;;;;;;;288.38;141.32;;;;;;;;;;5114583;28;20027;-69
2022/01/17 01:10:13;;;;;;;260.55;134.82;;;;;;;;;;5114667;28;20059;-65
2022/01/17 01:12:44;;;;;;;269.58;137.30;;;;;;;;;;5114586;28;20034;-66
2022/01/17 01:15:33;;;;;;;266.40;129.27;;;;;;;;;;5114546;28;20020;-66
2022/01/17 01:18:01;;;;;;;263.63;131.90;;;;;;;;;;5114378;28;20471;-67
2022/01/17 01:28:27;;;;;;;250.48;124.35;;;;;;;;;;5114035;28;20399;-66
2022/01/17 01:30:56;;;;;;;237.73;119.47;;;;;;;;;;5114027;28;20442;-67
2022/01/17 01:33:30;;;;;;;238.73;121.13;;;;;;;;;;5114164;28;20033;-65
2022/01/17 01:36:08;;;;;;;220.20;113.00;;;;;;;;;;5113709;28;20080;-65
2022/01/17 01:38:36;;;;;;;232.25;116.45;;;;;;;;;;5114154;28;20024;-67
2022/01/17 01:41:02;;;;;;;230.45;117.55;;;;;;;;;;5114024;28;20064;-65
2022/01/17 01:43:29;;;;;;;222.77;114.43;;;;;;;;;;5095733;28;20023;-65
2022/01/17 01:45:58;;;;;;;218.57;116.20;;;;;;;;;;5095657;28;20471;-66
2022/01/17 01:48:25;;;;;;;224.15;116.47;;;;;;;;;;5113953;28;20054;-65
2022/01/17 01:50:51;;;;;;;219.38;113.78;;;;;;;;;;5113959;28;20375;-66
2022/01/17 01:53:18;;;;;;;212.32;114.43;;;;;;;;;;5113552;28;20103;-66
2022/01/17 01:55:45;;;;;;;218.40;112.45;;;;;;;;;;5095459;28;20024;-66
2022/01/17 01:58:11;;;;;;;222.82;116.65;;;;;;;;;;5095439;28;20031;-67
2022/01/17 02:00:38;;;;;;;220.15;114.00;;;;;;;;;;5095429;28;20066;-65
2022/01/17 02:03:05;;;;;;;228.45;118.65;;;;;;;;;;5113738;28;20436;-65
2022/01/17 02:05:32;;;;;;;219.35;114.30;;;;;;;;;;5113676;28;20031;-66
2022/01/17 02:08:00;;;;;;;214.38;110.43;;;;;;;;;;5113647;28;20106;-66
2022/01/17 02:10:27;;;;;;;215.77;112.55;;;;;;;;;;5095378;28;20134;-67
2022/01/17 02:12:54;;;;;;;209.80;108.40;;;;;;;;;;5095362;28;20077;-65
2022/01/17 02:15:20;;;;;;;221.38;110.32;;;;;;;;;;5113569;28;20110;-66
2022/01/17 02:17:58;;;;;;;217.27;111.20;;;;;;;;;;5113509;28;20162;-66
2022/01/17 02:20:35;;;;;;;204.70;108.05;;;;;;;;;;5113538;28;20031;-65
2022/01/17 02:23:04;;;;;;;202.65;107.50;;;;;;;;;;5113531;28;20023;-67
2022/01/17 02:25:31;;;;;;;203.05;103.90;;;;;;;;;;5095146;28;20515;-66
2022/01/17 02:27:58;;;;;;;196.15;104.18;;;;;;;;;;5113449;28;20024;-66
2022/01/17 02:30:26;;;;;;;195.68;100.38;;;;;;;;;;5117645;28;20032;-66
2022/01/17 02:32:52;;;;;;;192.82;99.85;;;;;;;;;;5117675;28;20371;-67
2022/01/17 02:35:20;;;;;;;205.00;103.47;;;;;;;;;;5117206;28;20052;-66
2022/01/17 02:37:47;;;;;;;195.23;102.50;;;;;;;;;;5099228;28;20028;-65
2022/01/17 02:40:14;;;;;;;197.80;104.22;;;;;;;;;;5117539;28;20031;-65
2022/01/17 02:42:41;;;;;;;204.65;107.13;;;;;;;;;;5117541;28;20088;-67
2022/01/17 02:45:19;;;;;;;200.23;107.25;;;;;;;;;;5117444;28;20039;-67
2022/01/17 02:47:46;;;;;;;207.77;107.82;;;;;;;;;;5117120;28;20433;-65
2022/01/17 02:50:14;;;;;;;202.25;105.40;;;;;;;;;;5117436;28;20027;-65
2022/01/17 02:52:40;;;;;;;197.07;106.60;;;;;;;;;;5098974;28;20117;-65
2022/01/17 02:55:07;;;;;;;205.27;105.78;;;;;;;;;;5116959;28;20034;-66
2022/01/17 02:57:33;;;;;;;204.35;108.97;;;;;;;;;;5098919;28;20065;-65
2022/01/17 03:00:00;;;;;;;224.15;111.70;;;;;;;;;;5117073;28;20059;-65
2022/01/17 03:02:26;;;;;;;207.82;110.65;;;;;;;;;;5117161;28;20057;-64
2022/01/17 03:04:52;;;;;;;211.15;107.60;;;;;;;;;;5098714;28;20027;-66
2022/01/17 03:07:18;;;;;;;203.65;106.45;;;;;;;;;;5117043;28;20510;-65
2022/01/17 03:10:00;;;;;;;203.25;105.43;;;;;;;;;;5116981;28;20050;-65
2022/01/17 03:12:27;;;;;;;201.07;105.35;;;;;;;;;;5116923;28;20394;-66
2022/01/17 03:14:53;;;;;;;207.07;108.82;;;;;;;;;;5117144;28;20055;-65
2022/01/17 03:17:19;;;;;;;196.80;106.50;;;;;;;;;;5116824;28;20019;-66
2022/01/17 03:19:45;;;;;;;199.10;106.50;;;;;;;;;;5116695;28;20028;-66
2022/01/17 03:22:12;;;;;;;201.40;108.03;;;;;;;;;;5116601;28;20386;-67
2022/01/17 03:24:38;;;;;;;195.82;104.07;;;;;;;;;;5116675;28;20023;-65
2022/01/17 03:27:04;;;;;;;199.50;104.38;;;;;;;;;;5116637;28;20459;-65
2022/01/17 03:29:30;;;;;;;198.90;99.32;;;;;;;;;;5116885;28;20050;-65
2022/01/17 03:31:57;;;;;;;185.93;100.35;;;;;;;;;;5116584;28;20059;-65
2022/01/17 03:34:23;;;;;;;192.40;101.22;;;;;;;;;;5116484;28;20110;-65
2022/01/17 03:36:55;;;;;;;195.52;103.20;;;;;;;;;;5098168;28;20032;-65
2022/01/17 03:39:22;;;;;;;188.65;100.47;;;;;;;;;;5116295;28;20035;-65
2022/01/17 03:41:48;;;;;;;185.20;95.03;;;;;;;;;;5115384;28;20026;-65
2022/01/17 03:44:14;;;;;;;193.30;99.55;;;;;;;;;;5116302;28;20055;-65
2022/01/17 03:46:41;;;;;;;184.52;100.43;;;;;;;;;;5116270;28;20366;-66
2022/01/17 03:49:07;;;;;;;190.75;96.60;;;;;;;;;;5116185;28;20024;-65
2022/01/17 03:51:33;;;;;;;187.70;101.10;;;;;;;;;;5116203;28;20136;-65
2022/01/17 03:53:59;;;;;;;178.80;94.57;;;;;;;;;;5097680;28;20164;-64
2022/01/17 03:56:25;;;;;;;184.05;100.38;;;;;;;;;;5097736;28;20118;-65
2022/01/17 03:58:52;;;;;;;181.05;95.45;;;;;;;;;;5115997;28;20437;-65
2022/01/17 04:01:19;;;;;;;182.00;95.53;;;;;;;;;;5115908;28;20112;-65
2022/01/17 04:03:46;;;;;;;174.88;95.88;;;;;;;;;;5115896;28;20538;-65
2022/01/17 04:06:15;;;;;;;176.07;93.05;;;;;;;;;;5097248;28;20028;-64
2022/01/17 04:08:41;;;;;;;177.48;92.13;;;;;;;;;;5115830;28;20371;-67
2022/01/17 04:11:08;;;;;;;174.75;91.75;;;;;;;;;;5097513;28;20042;-66
2022/01/17 04:13:35;;;;;;;171.50;89.68;;;;;;;;;;5115826;28;20030;-65
2022/01/17 04:16:01;;;;;;;170.25;90.35;;;;;;;;;;5115692;28;20110;-66
2022/01/17 04:18:28;;;;;;;176.73;94.68;;;;;;;;;;5115563;28;20107;-65
2022/01/17 04:20:57;;;;;;;175.85;90.80;;;;;;;;;;5115583;28;20027;-67
2022/01/17 04:23:23;;;;;;;172.15;91.15;;;;;;;;;;5115566;28;20456;-65
2022/01/17 04:25:49;;;;;;;175.43;91.05;;;;;;;;;;5115490;28;20030;-66
2022/01/17 04:28:16;;;;;;;160.82;90.95;;;;;;;;;;5115491;28;20024;-65
2022/01/17 04:30:43;;;;;;;171.25;86.35;;;;;;;;;;5115445;28;20059;-67
2022/01/17 04:33:10;;;;;;;174.68;90.78;;;;;;;;;;5115435;28;20022;-65
2022/01/17 04:35:36;;;;;;;158.90;85.00;;;;;;;;;;5096783;28;20492;-65
2022/01/17 04:38:13;;;;;;;158.95;83.05;;;;;;;;;;5096897;28;20384;-65
2022/01/17 04:40:40;;;;;;;153.88;84.60;;;;;;;;;;5096867;28;20031;-66
2022/01/17 04:43:20;;;;;;;163.57;87.03;;;;;;;;;;5096961;28;20467;-65
2022/01/17 04:45:47;;;;;;;166.43;87.03;;;;;;;;;;5096784;28;20039;-67
2022/01/17 04:48:13;;;;;;;158.38;84.70;;;;;;;;;;5115068;28;20070;-66
2022/01/17 04:50:40;;;;;;;155.77;82.68;;;;;;;;;;5115001;28;20027;-68
2022/01/17 04:53:07;;;;;;;159.52;84.30;;;;;;;;;;5114643;28;20035;-65
2022/01/17 04:55:36;;;;;;;149.18;79.35;;;;;;;;;;5114903;28;20032;-67
2022/01/17 04:58:02;;;;;;;145.70;79.25;;;;;;;;;;5114831;28;20027;-65
2022/01/17 05:00:29;;;;;;;139.25;78.10;;;;;;;;;;5114719;28;20031;-66
2022/01/17 05:02:55;;;;;;;141.13;76.05;;;;;;;;;;5096545;28;20028;-65
2022/01/17 05:05:21;;;;;;;147.82;76.60;;;;;;;;;;5114697;28;20383;-65
2022/01/17 05:07:48;;;;;;;142.50;73.85;;;;;;;;;;5114657;28;20031;-64
2022/01/17 05:10:16;;;;;;;136.85;75.20;;;;;;;;;;5096387;28;20818;-65
2022/01/17 05:12:42;;;;;;;140.73;74.05;;;;;;;;;;5114603;28;20136;-66
2022/01/17 05:15:17;;;;;;;136.15;72.53;;;;;;;;;;5114510;28;20024;-65
2022/01/17 05:17:56;;;;;;;139.50;76.45;;;;;;;;;;5114529;28;20020;-65
2022/01/17 05:20:22;;;;;;;134.77;74.28;;;;;;;;;;5114119;28;20502;-66
2022/01/17 05:22:49;;;;;;;138.35;73.13;;;;;;;;;;5114428;28;20040;-65
2022/01/17 05:25:15;;;;;;;136.02;72.93;;;;;;;;;;5114632;28;20015;-66
2022/01/17 05:27:42;;;;;;;154.52;83.78;;;;;;;;;;5114531;28;20523;-66
2022/01/17 05:30:13;;;;;;;147.48;80.60;;;;;;;;;;5113978;28;20357;-66
2022/01/17 05:32:39;;;;;;;137.45;71.50;;;;;;;;;;5114269;28;20042;-65
2022/01/17 05:35:06;;;;;;;129.90;69.80;;;;;;;;;;5113821;28;20495;-66
2022/01/17 05:37:33;;;;;;;122.45;66.20;;;;;;;;;;5114103;28;20032;-66
2022/01/17 05:39:59;;;;;;;129.52;68.80;;;;;;;;;;5114016;28;20028;-65
2022/01/17 05:42:26;;;;;;;131.02;68.22;;;;;;;;;;5095819;28;20111;-67
2022/01/17 05:44:53;;;;;;;134.10;69.95;;;;;;;;;;5113973;28;20028;-66
2022/01/17 05:47:19;;;;;;;128.32;68.05;;;;;;;;;;5114223;28;20070;-66
2022/01/17 05:49:46;;;;;;;127.95;68.75;;;;;;;;;;5113797;28;20028;-66
2022/01/17 05:52:12;;;;;;;139.07;71.75;;;;;;;;;;5113933;28;20027;-66
2022/01/17 05:54:39;;;;;;;163.95;82.45;;;;;;;;;;5095447;28;20477;-65
2022/01/17 05:57:06;;;;;;;170.73;89.60;;;;;;;;;;5113256;28;20024;-66
2022/01/17 05:59:35;;;;;;;181.70;93.30;;;;;;;;;;5113658;28;20062;-67
2022/01/17 06:02:02;;;;;;;185.98;94.60;;;;;;;;;;5113751;28;20024;-67
2022/01/17 06:04:28;;;;;;;181.73;92.45;;;;;;;;;;5112977;28;20080;-66
2022/01/17 06:06:54;;;;;;;180.80;95.45;;;;;;;;;;5113661;28;20031;-65
2022/01/17 06:09:20;;;;;;;182.73;96.15;;;;;;;;;;5113646;28;20023;-65
2022/01/17 06:11:46;;;;;;;189.35;94.30;;;;;;;;;;5113641;28;20023;-67
2022/01/17 06:14:17;;;;;;;187.20;96.90;;;;;;;;;;5095438;28;20111;-67
2022/01/17 06:16:44;;;;;;;204.15;103.35;;;;;;;;;;5113549;28;20107;-66
2022/01/17 06:19:10;;;;;;;205.80;106.63;;;;;;;;;;5095271;28;20062;-65
2022/01/17 06:21:36;;;;;;;207.85;106.55;;;;;;;;;;5095131;28;20050;-66
2022/01/17 06:24:04;;;;;;;203.50;104.57;;;;;;;;;;5113488;28;20455;-64
2022/01/17 06:26:31;;;;;;;199.13;104.90;;;;;;;;;;5113131;28;20136;-66
2022/01/17 06:28:57;;;;;;;202.65;104.35;;;;;;;;;;5113637;28;20095;-67
2022/01/17 06:31:23;;;;;;;213.88;108.78;;;;;;;;;;5113350;28;20034;-65
2022/01/17 06:33:49;;;;;;;206.80;108.45;;;;;;;;;;5095057;28;20076;-65
2022/01/17 06:36:15;;;;;;;222.00;113.25;;;;;;;;;;5112800;28;20048;-68
2022/01/17 06:38:42;;;;;;;219.68;113.35;;;;;;;;;;5113271;28;20501;-68
2022/01/17 06:41:08;;;;;;;209.80;106.13;;;;;;;;;;5113144;28;20440;-67
2022/01/17 06:43:34;;;;;;;212.43;107.10;;;;;;;;;;5113446;28;20150;-66
2022/01/17 06:46:00;;;;;;;207.70;105.82;;;;;;;;;;5094880;28;20032;-67
2022/01/17 06:48:27;;;;;;;200.27;100.75;;;;;;;;;;5094845;28;20035;-67
2022/01/17 06:50:53;;;;;;;202.43;101.28;;;;;;;;;;5113097;28;20035;-65
2022/01/17 06:53:19;;;;;;;192.48;99.70;;;;;;;;;;5113174;28;20050;-66
2022/01/17 06:55:45;;;;;;;200.07;100.85;;;;;;;;;;5113150;28;20035;-67
2022/01/17 06:58:11;;;;;;;204.98;103.13;;;;;;;;;;5113133;28;20043;-69
2022/01/17 07:00:38;;;;;;;192.55;99.90;;;;;;;;;;5112994;28;20046;-65
2022/01/17 07:03:04;;;;;;;207.85;106.82;;;;;;;;;;5094769;28;20043;-67
2022/01/17 07:05:30;;;;;;;224.18;113.63;;;;;;;;;;5112966;28;20099;-66
2022/01/17 07:07:56;;;;;;;221.23;117.00;;;;;;;;;;5094640;28;20467;-66
2022/01/17 07:10:25;;;;;;;283.58;145.25;;;;;;;;;;5112889;28;20028;-66
2022/01/17 07:12:51;;;;;;;303.08;152.13;;;;;;;;;;5112948;28;20011;-65
2022/01/17 07:15:17;;;;;;;298.25;151.48;;;;;;;;;;5114893;28;20066;-66
2022/01/17 07:17:43;;;;;;;291.45;146.93;;;;;;;;;;5098304;28;20028;-65
2022/01/17 07:20:10;;;;;;;326.60;168.32;;;;;;;;;;5116537;28;20031;-65
2022/01/17 07:22:36;;;;;;;228.25;119.10;;;;;;;;;;5116692;28;20032;-65
2022/01/17 07:25:03;;;;;;;227.00;121.15;;;;;;;;;;5116645;28;20149;-66
2022/01/17 07:27:30;;;;;;;231.80;117.80;;;;;;;;;;5116527;28;20510;-65
2022/01/17 07:29:57;;;;;;;349.73;162.13;;;;;;;;;;5116445;28;20059;-66
2022/01/17 07:32:24;;;;;;;379.85;186.63;;;;;;;;;;5116532;28;20031;-65
2022/01/17 07:34:50;;;;;;;497.70;253.80;;;;;;;;;;5101029;28;20048;-65
2022/01/17 07:37:16;;;;;;;171.48;96.25;;;;;;;;;;5075590;28;20080;-67
2022/01/17 07:39:43;;;;;;;194.18;100.80;;;;;;;;;;5075625;28;20112;-66
2022/01/17 07:42:10;;;;;;;277.40;133.07;;;;;;;;;;5075878;28;20029;-66
2022/01/17 07:44:39;;;;;;;389.42;183.60;;;;;;;;;;5075642;28;20028;-66
2022/01/17 07:47:06;;;;;;;330.73;159.57;;;;;;;;;;5074226;28;20376;-67
2022/01/17 07:49:33;;;;;;;247.38;116.40;;;;;;;;;;5075573;28;20057;-66
2022/01/17 07:52:02;;;;;;;208.65;106.30;;;;;;;;;;5075507;28;20100;-65
2022/01/17 07:54:29;;;;;;;217.25;106.45;;;;;;;;;;5075480;28;20069;-66
2022/01/17 07:56:56;;;;;;;194.50;101.70;;;;;;;;;;5075108;28;20502;-66
2022/01/17 07:59:22;;;;;;;172.25;89.50;;;;;;;;;;5075354;28;20364;-66
2022/01/17 08:01:48;;;;;;;245.88;127.25;;;;;;;;;;5075252;28;20028;-66
2022/01/17 08:04:15;;;;;;;159.57;86.65;;;;;;;;;;5075336;28;20029;-68
2022/01/17 08:06:41;;;;;;;162.77;90.38;;;;;;;;;;5075211;28;20043;-65
2022/01/17 08:09:11;;;;;;;159.45;89.75;;;;;;;;;;5075165;28;20024;-67
2022/01/17 08:11:37;;;;;;;193.88;104.85;;;;;;;;;;5075137;28;20050;-67
2022/01/17 08:14:03;;;;;;;203.82;112.35;;;;;;;;;;5075216;28;20024;-66
2022/01/17 08:16:29;;;;;;;232.77;118.60;;;;;;;;;;5075057;28;20056;-67
2022/01/17 08:18:56;;;;;;;238.32;123.10;;;;;;;;;;5075053;28;20048;-65
2022/01/17 08:21:22;;;;;;;273.23;135.93;;;;;;;;;;5073200;28;20075;-66
2022/01/17 08:23:49;;;;;;;280.90;137.30;;;;;;;;;;5074972;28;20029;-65
2022/01/17 08:26:15;;;;;;;228.65;122.43;;;;;;;;;;5074063;28;20053;-66
2022/01/17 08:28:41;;;;;;;213.35;118.20;;;;;;;;;;5074835;28;20032;-66
2022/01/17 08:31:08;;;;;;;199.52;110.18;;;;;;;;;;5073164;28;20068;-65
2022/01/17 08:33:35;;;;;;;184.13;101.40;;;;;;;;;;5074453;28;20075;-66
2022/01/17 08:36:01;;;;;;;196.73;108.95;;;;;;;;;;5074692;28;20052;-67
2022/01/17 08:38:29;;;;;;;188.43;99.88;;;;;;;;;;5073075;28;20048;-65
2022/01/17 08:40:59;;;;;;;165.75;92.20;;;;;;;;;;5074497;28;20032;-65
2022/01/17 08:43:26;;;;;;;177.25;92.88;;;;;;;;;;5074506;28;20029;-65
2022/01/17 08:45:53;;;;;;;197.10;103.78;;;;;;;;;;5074349;28;20070;-66
2022/01/17 08:48:19;;;;;;;189.25;101.82;;;;;;;;;;5074358;28;20024;-67
2022/01/17 08:50:47;;;;;;;162.13;88.90;;;;;;;;;;5074583;28;20032;-65
2022/01/17 08:53:14;;;;;;;137.57;76.47;;;;;;;;;;5072958;28;20465;-66
2022/01/17 08:55:42;;;;;;;123.43;70.80;;;;;;;;;;5074233;28;20111;-66
2022/01/17 08:58:09;;;;;;;126.45;68.10;;;;;;;;;;5074140;28;20361;-66
2022/01/17 09:00:35;;;;;;;122.07;66.93;;;;;;;;;;5074031;28;20025;-67
2022/01/17 09:03:02;;;;;;;102.72;56.78;;;;;;;;;;5074100;28;20473;-66
2022/01/17 09:05:29;;;;;;;93.13;51.22;;;;;;;;;;5073939;28;20060;-65
2022/01/17 09:07:55;;;;;;;73.32;40.38;;;;;;;;;;5073993;28;20029;-66
2022/01/17 09:10:21;;;;;;;64.05;36.22;;;;;;;;;;5073938;28;20354;-65
2022/01/17 09:12:49;;;;;;;59.20;33.72;;;;;;;;;;5072594;28;20476;-65
2022/01/17 09:15:15;;;;;;;61.70;34.10;;;;;;;;;;5073830;28;20236;-66
2022/01/17 09:17:41;;;;;;;61.35;33.55;;;;;;;;;;5072467;28;20032;-65
2022/01/17 09:20:07;;;;;;;44.47;25.52;;;;;;;;;;5072381;28;20476;-66
2022/01/17 09:22:34;;;;;;;47.47;26.45;;;;;;;;;;5074002;28;20460;-66
2022/01/17 09:25:00;;;;;;;38.75;23.40;;;;;;;;;;5072471;28;20029;-67
2022/01/17 09:27:26;;;;;;;31.95;19.38;;;;;;;;;;5073671;28;20081;-67
2022/01/17 09:29:53;;;;;;;32.97;18.58;;;;;;;;;;5072364;28;20047;-69
2022/01/17 09:32:19;;;;;;;29.27;16.83;;;;;;;;;;5073564;28;20104;-67
2022/01/17 09:34:46;;;;;;;30.40;15.70;;;;;;;;;;5073478;28;20082;-65
2022/01/17 09:37:13;;;;;;;23.77;13.20;;;;;;;;;;5073519;28;20108;-65
2022/01/17 09:39:39;;;;;;;21.85;12.27;;;;;;;;;;5072100;28;20024;-66
2022/01/17 09:42:06;;;;;;;17.90;9.82;;;;;;;;;;5073200;28;20112;-65
2022/01/17 09:44:33;;;;;;;18.58;10.43;;;;;;;;;;5073414;28;20020;-65
2022/01/17 09:47:00;;;;;;;22.85;11.23;;;;;;;;;;5073282;28;20029;-66
2022/01/17 09:50:12;;;;;;;21.23;12.27;;;;;;;;;;5073323;28;20030;-64
2022/01/17 09:52:33;;;;;;;13.60;9.43;;;;;;;;;;5062228;28;20036;-66
2022/01/17 09:55:11;;;;;;;18.40;10.15;;;;;;;;;;5072839;28;20036;-64
2022/01/17 09:57:51;;;;;;;18.10;8.50;;;;;;;;;;5071756;28;20036;-64
2022/01/17 10:00:17;;;;;;;15.48;9.05;;;;;;;;;;5071800;28;20064;-64
2022/01/17 10:02:44;;;;;;;21.20;10.50;;;;;;;;;;5071530;28;20064;-65
2022/01/17 10:05:10;;;;;;;17.50;10.63;;;;;;;;;;5071858;28;20021;-65
2022/01/17 10:07:55;;;;;;;19.70;9.80;;;;;;;;;;5073014;28;20062;-65
2022/01/17 10:10:35;;;;;;;21.95;11.23;;;;;;;;;;5071662;28;20024;-67
2022/01/17 10:13:23;;;;;;;14.55;8.60;;;;;;;;;;5072988;28;20368;-65
2022/01/17 10:16:02;;;;;;;18.17;9.00;;;;;;;;;;5073024;28;20017;-65
2022/01/17 10:18:34;;;;;;;24.65;10.82;;;;;;;;;;5072990;28;20028;-67
2022/01/17 10:21:16;;;;;;;;;;;;;;;;;;5073249;28;20029;-65
2022/01/17 10:26:59;;;;;;;17.05;8.60;;;;;;;;;;5052607;28;19915;-66
2022/01/17 10:37:15;;;;;;;13.07;7.85;;;;;;;;;;5072582;28;20119;-68
2022/01/17 10:40:20;;;;;;;16.25;8.55;;;;;;;;;;5072746;28;20028;-64
2022/01/17 10:42:48;;;;;;;21.02;9.25;;;;;;;;;;4991176;28;20042;-64
2022/01/17 10:45:14;;;;;;;17.95;8.85;;;;;;;;;;4991011;28;20026;-67
2022/01/17 10:47:43;;;;;;;18.33;9.93;;;;;;;;;;4990915;28;20035;-66
2022/01/17 10:50:20;;;;;;;15.07;8.75;;;;;;;;;;4992697;28;20113;-65
2022/01/17 10:52:48;;;;;;;17.00;9.07;;;;;;;;;;4994802;28;20403;-64
2022/01/17 10:55:16;;;;;;;15.10;7.50;;;;;;;;;;4994783;28;20041;-67
2022/01/17 10:57:47;;;;;;;11.95;7.68;;;;;;;;;;4994721;28;20057;-67
2022/01/17 11:00:16;;;;;;;14.75;7.00;;;;;;;;;;4994484;28;20038;-65
2022/01/17 11:02:44;;;;;;;13.45;6.93;;;;;;;;;;4994617;28;20030;-65
2022/01/17 11:05:11;;;;;;;12.57;7.85;;;;;;;;;;4978236;28;20521;-64
2022/01/17 11:07:42;;;;;;;9.93;5.90;;;;;;;;;;4994558;28;20550;-64
2022/01/17 11:10:13;;;;;;;10.13;5.95;;;;;;;;;;4994602;28;20092;-67
2022/01/17 11:12:39;;;;;;;12.98;6.05;;;;;;;;;;5006919;28;20131;-64
2022/01/17 11:15:05;;;;;;;13.43;7.50;;;;;;;;;;5076196;28;20025;-66
2022/01/17 11:17:38;;;;;;;18.10;7.25;;;;;;;;;;5076121;28;20468;-65
2022/01/17 11:20:07;;;;;;;21.73;7.78;;;;;;;;;;5074730;28;20059;-64
2022/01/17 11:22:41;;;;;;;18.67;7.57;;;;;;;;;;5074748;28;20021;-65
2022/01/17 11:25:09;;;;;;;9.98;5.78;;;;;;;;;;5076072;28;20083;-66
2022/01/17 11:27:35;;;;;;;11.88;6.57;;;;;;;;;;5076235;28;20437;-65
2022/01/17 11:30:02;;;;;;;9.30;5.85;;;;;;;;;;5075918;28;20020;-63
2022/01/17 11:32:28;;;;;;;10.88;6.45;;;;;;;;;;5074536;28;20491;-64
2022/01/17 11:34:57;;;;;;;8.23;4.32;;;;;;;;;;5075518;28;20128;-66
2022/01/17 11:37:24;;;;;;;12.18;6.07;;;;;;;;;;5076042;28;20030;-66
2022/01/17 11:39:52;;;;;;;17.73;7.32;;;;;;;;;;5075705;28;20024;-66
2022/01/17 11:42:41;;;;;;;25.55;10.05;;;;;;;;;;5075889;28;20117;-65
2022/01/17 11:45:31;;;;;;;19.80;9.85;;;;;;;;;;5064713;28;20102;-64
2022/01/17 11:48:03;;;;;;;28.48;10.45;;;;;;;;;;5064746;28;20042;-64
2022/01/17 11:50:30;;;;;;;22.75;9.07;;;;;;;;;;5075780;28;20499;-64
2022/01/17 11:52:58;;;;;;;26.45;11.57;;;;;;;;;;5074148;28;20029;-65
2022/01/17 11:55:53;;;;;;;25.00;10.48;;;;;;;;;;5075527;28;20488;-65
2022/01/17 11:58:26;;;;;;;32.08;12.68;;;;;;;;;;5058052;28;20070;-66
2022/01/17 12:01:01;;;;;;;21.40;8.02;;;;;;;;;;5074637;28;20028;-64
2022/01/17 12:03:30;;;;;;;22.00;9.48;;;;;;;;;;5075187;28;20028;-65
2022/01/17 12:05:57;;;;;;;32.55;11.60;;;;;;;;;;5075258;28;20035;-66
2022/01/17 12:08:25;;;;;;;29.02;10.88;;;;;;;;;;5074917;28;20111;-65
2022/01/17 12:11:01;;;;;;;37.58;13.38;;;;;;;;;;5074912;28;20024;-67
2022/01/17 12:13:37;;;;;;;22.92;9.30;;;;;;;;;;5075173;28;20183;-68
2022/01/17 12:16:13;;;;;;;20.40;8.18;;;;;;;;;;5075168;28;20464;-65
2022/01/17 12:18:48;;;;;;;33.15;11.90;;;;;;;;;;5075042;28;20054;-65
2022/01/17 12:21:21;;;;;;;8.30;4.32;;;;;;;;;;5074644;28;20429;-65
2022/01/17 12:23:47;;;;;;;10.27;5.53;;;;;;;;;;5074989;28;20085;-65
2022/01/17 12:26:27;;;;;;;15.23;7.70;;;;;;;;;;5074736;28;20024;-64
2022/01/17 12:28:55;;;;;;;15.52;7.10;;;11.80;68.70;;;;;;5073601;28;20376;-65
2022/01/17 12:31:45;;;;;;;16.98;8.52;;;12.30;69.10;;;;;;5073454;28;20033;-66
2022/01/17 12:34:14;;;;;;;9.85;4.80;;;;;;;;;;5073250;28;20082;-66
2022/01/17 12:36:42;;;;;;;9.70;6.25;;;;;;;;;;5074379;28;20510;-65
2022/01/17 12:39:13;;;;;;;20.40;6.75;;;;;;;;;;5073341;28;20357;-64
2022/01/17 12:41:41;;;;;;;12.68;6.65;;;;;;;;;;5073330;28;20387;-66
2022/01/17 12:44:15;;;;;;;10.55;5.90;;;;;;;;;;5074575;28;20029;-66
2022/01/17 12:46:45;;;;;;;12.15;6.30;;;;;;;;;;5073284;28;20054;-69
2022/01/17 12:49:11;;;;;;;8.77;5.65;;;;;;;;;;5074657;28;20116;-66
2022/01/17 12:51:45;;;;;;;18.25;8.35;;;;;;;;;;5074379;28;20033;-65
2022/01/17 12:54:13;;;;;;;13.45;6.82;;;;;;;;;;5074111;28;20381;-68
2022/01/17 12:56:44;;;;;;;9.50;5.05;;;;;;;;;;5074353;28;20479;-69
2022/01/17 12:59:10;;;;;;;8.17;4.87;;;;;;;;;;5072949;28;20028;-66
2022/01/17 13:01:41;;;;;;;9.50;5.07;;;;;;;;;;5074108;28;20028;-63
2022/01/17 13:04:11;;;;;;;11.77;5.40;;;;;;;;;;5072848;28;20032;-65
2022/01/17 13:06:38;;;;;;;15.18;8.00;;;;;;;;;;5074345;28;20381;-66
2022/01/17 13:09:09;;;;;;;12.98;6.18;;;;;;;;;;5072681;28;20032;-65
2022/01/17 13:11:38;;;;;;;12.32;6.63;;;;;;;;;;5074032;28;20029;-65
2022/01/17 13:14:04;;;;;;;9.82;5.32;;;;;;;;;;5073634;28;20032;-65
2022/01/17 13:16:34;;;;;;;8.18;5.05;;;;;;;;;;5074200;28;20051;-67
2022/01/17 13:19:00;;;;;;;9.90;5.32;;;;;;;;;;5073822;28;20024;-64
2022/01/17 13:21:27;;;;;;;13.57;8.00;;;;;;;;;;5073657;28;20052;-64
2022/01/17 13:23:58;;;;;;;14.63;7.65;;;;;;;;;;5073681;28;20150;-67
2022/01/17 13:26:26;;;;;;;11.32;6.82;;;;;;;;;;5072483;28;20032;-65
2022/01/17 13:28:54;;;;;;;12.13;6.55;;;;;;;;;;5073608;28;20031;-68
2022/01/17 13:31:22;;;;;;;9.27;5.63;;;;;;;;;;5073293;28;20036;-66
2022/01/17 13:33:48;;;;;;;14.00;6.82;;;;;;;;;;5073369;28;20107;-68
2022/01/17 13:36:28;;;;;;;8.80;5.18;;;;;;;;;;5071855;28;20047;-68
2022/01/17 13:39:00;;;;;;;16.52;6.47;;;;;;;;;;5073504;28;20448;-68
2022/01/17 13:41:27;;;;;;;14.43;7.13;;;;;;;;;;5073426;28;20039;-65
2022/01/17 13:43:54;;;;;;;13.90;7.25;;;;;;;;;;5073426;28;20032;-68
2022/01/17 13:46:20;;;;;;;11.73;5.88;;;;;;;;;;5073416;28;20063;-69
2022/01/17 13:48:46;;;;;;;12.18;6.53;;;;;;;;;;5071941;28;20036;-67
2022/01/17 13:51:13;;;;;;;7.55;5.38;;;;;;;;;;5073294;28;20035;-64
2022/01/17 13:53:39;;;;;;;9.00;6.35;;;;;;;;;;5073307;28;20190;-67
2022/01/17 13:56:07;;;;;;;9.63;6.18;;;;;;;;;;5073282;28;20056;-65
2022/01/17 13:58:35;;;;;;;9.95;6.40;;;;;;;;;;5073238;28;20021;-69
2022/01/17 14:01:01;;;;;;;8.68;5.78;;;;;;;;;;5071529;28;20075;-67
2022/01/17 14:03:28;;;;;;;9.48;5.90;;;;;;;;;;5071900;28;20439;-66
2022/01/17 14:05:56;;;;;;;13.82;5.93;;;;;;;;;;5073177;28;20166;-65
2022/01/17 14:08:22;;;;;;;23.52;6.82;;;;;;;;;;5073107;28;20032;-67
2022/01/17 14:10:48;;;;;;;9.70;5.90;;;;;;;;;;5073121;28;20028;-65
2022/01/17 14:13:18;;;;;;;10.00;6.78;;;;;;;;;;5073000;28;20031;-67
2022/01/17 14:15:45;;;;;;;13.52;7.25;;;;;;;;;;5073083;28;20091;-65
2022/01/17 14:18:12;;;;;;;11.90;6.85;;;;;;;;;;5071721;28;20029;-67
2022/01/17 14:20:40;;;;;;;14.70;6.70;;;;;;;;;;5071623;28;20037;-64
2022/01/17 14:23:07;;;;;;;12.65;7.05;;;;;;;;;;5072853;28;20027;-67
2022/01/17 14:25:36;;;;;;;12.18;6.97;;;;;;;;;;5071000;28;20020;-68
2022/01/17 14:28:08;;;;;;;12.82;7.20;;;;;;;;;;5072956;28;20017;-67
2022/01/17 14:30:36;;;;;;;15.50;8.25;;;;;;;;;;5072922;28;20016;-69
2022/01/17 14:33:10;;;;;;;13.32;7.35;;;;;;;;;;5072787;28;20013;-67
2022/01/17 14:35:36;;;;;;;18.77;8.38;;;;;;;;;;5072439;28;20044;-68
2022/01/17 14:38:03;;;;;;;15.30;8.45;;;;;;;;;;5072934;28;20368;-69